createdAt,value
2017-08-17T00:02:14.705Z,18.60
2017-08-17T00:04:42.990Z,18.70
2017-08-17T00:07:11.276Z,18.70
2017-08-17T00:09:39.576Z,18.70
2017-08-17T00:12:07.959Z,18.60
2017-08-17T00:14:37.116Z,18.50
2017-08-17T00:17:05.448Z,18.50
2017-08-17T00:19:33.720Z,18.50
2017-08-17T00:22:02.044Z,18.40
2017-08-17T00:24:30.317Z,18.30
2017-08-17T00:26:58.622Z,18.30
2017-08-17T00:29:27.701Z,18.30
2017-08-17T00:31:55.974Z,18.30
2017-08-17T00:34:24.274Z,18.30
2017-08-17T00:36:53.342Z,18.30
2017-08-17T00:39:21.721Z,18.30
2017-08-17T00:41:50.015Z,18.20
2017-08-17T00:44:19.080Z,18.20
2017-08-17T00:46:47.344Z,18.30
2017-08-17T00:49:15.653Z,18.30
2017-08-17T00:51:44.678Z,18.20
2017-08-17T00:54:12.985Z,18.20
2017-08-17T00:56:41.286Z,18.30
2017-08-17T00:59:09.562Z,18.20
2017-08-17T01:01:37.939Z,18.20
2017-08-17T01:04:06.204Z,18.20
2017-08-17T01:06:34.650Z,18.10
2017-08-17T01:09:02.927Z,18.10
2017-08-17T01:11:31.305Z,18.10
2017-08-17T01:13:59.588Z,18.10
2017-08-17T01:16:28.059Z,18.00
2017-08-17T01:18:56.313Z,18.00
2017-08-17T01:21:24.605Z,18.00
2017-08-17T01:23:52.962Z,18.00
2017-08-17T01:26:21.333Z,18.00
2017-08-17T01:28:49.656Z,17.90
2017-08-17T01:31:17.997Z,17.90
2017-08-17T01:33:46.369Z,17.90
2017-08-17T01:36:14.644Z,17.80
2017-08-17T01:38:43.034Z,17.80
2017-08-17T01:41:11.313Z,17.80
2017-08-17T01:43:40.376Z,17.80
2017-08-17T01:46:08.678Z,17.80
2017-08-17T01:48:37.040Z,17.80
2017-08-17T01:51:05.439Z,17.80
2017-08-17T01:53:33.829Z,17.90
2017-08-17T01:56:02.229Z,17.90
2017-08-17T01:58:30.505Z,17.90
2017-08-17T02:00:58.796Z,17.90
2017-08-17T02:03:27.186Z,17.90
2017-08-17T02:05:55.556Z,17.90
2017-08-17T02:08:23.830Z,17.90
2017-08-17T02:10:52.202Z,17.90
2017-08-17T02:13:20.469Z,17.90
2017-08-17T02:15:48.754Z,17.90
2017-08-17T02:18:17.048Z,17.80
2017-08-17T02:20:45.378Z,17.80
2017-08-17T02:23:14.659Z,17.70
2017-08-17T02:25:43.034Z,17.70
2017-08-17T02:28:11.338Z,17.70
2017-08-17T02:30:40.367Z,17.60
2017-08-17T02:33:08.682Z,17.60
2017-08-17T02:35:37.079Z,17.60
2017-08-17T02:38:05.405Z,17.60
2017-08-17T02:40:33.721Z,17.60
2017-08-17T02:43:02.037Z,17.70
2017-08-17T02:45:30.309Z,17.60
2017-08-17T02:47:58.646Z,17.60
2017-08-17T02:50:26.967Z,17.60
2017-08-17T02:52:55.297Z,17.60
2017-08-17T02:55:23.620Z,17.60
2017-08-17T02:57:51.907Z,17.60
2017-08-17T03:00:20.229Z,17.70
2017-08-17T03:02:48.510Z,17.60
2017-08-17T03:05:16.810Z,17.60
2017-08-17T03:07:45.880Z,17.50
2017-08-17T03:10:14.168Z,17.50
2017-08-17T03:12:43.205Z,17.50
2017-08-17T03:15:11.541Z,17.50
2017-08-17T03:17:40.594Z,17.40
2017-08-17T03:20:08.872Z,17.40
2017-08-17T03:22:37.152Z,17.40
2017-08-17T03:25:05.460Z,17.40
2017-08-17T03:27:33.857Z,17.40
2017-08-17T03:30:02.898Z,17.30
2017-08-17T03:32:31.208Z,17.30
2017-08-17T03:34:59.487Z,17.20
2017-08-17T03:37:27.786Z,17.20
2017-08-17T03:39:56.111Z,17.30
2017-08-17T03:42:24.521Z,17.30
2017-08-17T03:44:52.775Z,17.30
2017-08-17T03:47:21.064Z,17.30
2017-08-17T03:49:49.366Z,17.30
2017-08-17T03:52:18.441Z,17.30
2017-08-17T03:54:46.762Z,17.30
2017-08-17T03:57:15.035Z,17.30
2017-08-17T03:59:43.336Z,17.30
2017-08-17T04:02:12.356Z,17.30
2017-08-17T04:04:40.693Z,17.30
2017-08-17T04:07:08.961Z,17.20
2017-08-17T04:09:37.248Z,17.20
2017-08-17T04:12:05.514Z,17.20
2017-08-17T04:14:33.829Z,17.20
2017-08-17T04:17:02.107Z,17.30
2017-08-17T04:19:30.398Z,17.30
2017-08-17T04:21:58.715Z,17.30
2017-08-17T04:24:27.098Z,17.30
2017-08-17T04:26:55.401Z,17.40
2017-08-17T04:29:24.456Z,17.40
2017-08-17T04:31:52.751Z,17.40
2017-08-17T04:34:21.788Z,17.50
2017-08-17T04:36:50.072Z,17.50
2017-08-17T04:39:18.344Z,17.50
2017-08-17T04:41:46.682Z,17.50
2017-08-17T04:44:14.942Z,17.50
2017-08-17T04:46:43.217Z,17.50
2017-08-17T04:49:11.521Z,17.60
2017-08-17T04:51:39.842Z,17.60
2017-08-17T04:54:08.142Z,17.60
2017-08-17T04:59:59.571Z,17.60
2017-08-17T05:02:27.918Z,17.60
2017-08-17T05:04:56.280Z,17.70
2017-08-17T05:07:24.550Z,17.70
2017-08-17T05:09:52.908Z,17.60
2017-08-17T05:12:21.208Z,17.60
2017-08-17T05:14:50.279Z,17.60
2017-08-17T05:17:18.568Z,17.60
2017-08-17T05:19:46.842Z,17.60
2017-08-17T05:22:15.210Z,17.60
2017-08-17T05:24:43.489Z,17.60
2017-08-17T05:27:11.976Z,17.60
2017-08-17T05:29:40.262Z,17.60
2017-08-17T05:32:08.610Z,17.60
2017-08-17T05:34:36.897Z,17.60
2017-08-17T05:37:05.185Z,17.60
2017-08-17T05:39:33.489Z,17.60
2017-08-17T05:42:02.567Z,17.70
2017-08-17T05:44:30.956Z,17.70
2017-08-17T05:46:59.217Z,17.70
2017-08-17T05:49:27.500Z,17.80
2017-08-17T05:51:56.102Z,17.90
2017-08-17T05:54:25.237Z,18.00
2017-08-17T05:56:53.560Z,18.00
2017-08-17T05:59:21.929Z,18.00
2017-08-17T06:01:50.313Z,18.00
2017-08-17T06:04:18.601Z,18.10
2017-08-17T06:06:46.977Z,18.10
2017-08-17T06:09:15.403Z,18.20
2017-08-17T06:11:43.676Z,18.30
2017-08-17T06:14:11.966Z,18.30
2017-08-17T06:16:40.295Z,18.30
2017-08-17T06:19:08.848Z,18.30
2017-08-17T06:21:37.166Z,18.40
2017-08-17T06:24:06.216Z,18.50
2017-08-17T06:26:34.498Z,18.50
2017-08-17T06:29:02.806Z,18.50
2017-08-17T06:31:31.169Z,18.50
2017-08-17T06:33:59.432Z,18.60
2017-08-17T06:36:27.811Z,18.60
2017-08-17T06:38:56.077Z,18.80
2017-08-17T06:41:24.383Z,18.80
2017-08-17T06:43:52.677Z,18.90
2017-08-17T06:46:21.074Z,18.90
2017-08-17T06:48:49.425Z,19.00
2017-08-17T06:51:18.516Z,19.30
2017-08-17T06:53:46.881Z,19.20
2017-08-17T06:56:15.180Z,19.40
2017-08-17T06:58:43.464Z,19.50
2017-08-17T07:01:12.541Z,19.70
2017-08-17T07:03:40.844Z,19.60
2017-08-17T07:06:09.190Z,19.60
2017-08-17T07:08:37.576Z,19.70
2017-08-17T07:11:05.967Z,19.80
2017-08-17T07:13:34.333Z,20.00
2017-08-17T07:16:02.706Z,20.10
2017-08-17T07:18:30.977Z,20.20
2017-08-17T07:20:59.369Z,20.40
2017-08-17T07:23:27.639Z,20.50
2017-08-17T07:25:55.961Z,20.60
2017-08-17T07:28:25.005Z,20.80
2017-08-17T07:30:53.285Z,20.80
2017-08-17T07:33:21.575Z,20.90
2017-08-17T07:35:49.873Z,21.00
2017-08-17T07:38:18.908Z,21.10
2017-08-17T07:40:47.172Z,21.10
2017-08-17T07:43:15.490Z,21.20
2017-08-17T07:45:43.772Z,21.30
2017-08-17T07:48:12.070Z,21.40
2017-08-17T07:50:41.123Z,21.50
2017-08-17T07:53:09.404Z,21.50
2017-08-17T07:55:37.786Z,21.50
2017-08-17T07:58:06.172Z,21.50
2017-08-17T08:00:35.244Z,21.80
2017-08-17T08:03:03.529Z,21.70
2017-08-17T08:05:32.554Z,21.90
2017-08-17T08:08:00.880Z,21.90
2017-08-17T08:10:29.137Z,22.00
2017-08-17T08:12:57.415Z,22.00
2017-08-17T08:15:26.024Z,22.20
2017-08-17T08:17:54.320Z,22.30
2017-08-17T08:20:23.402Z,22.50
2017-08-17T08:22:51.676Z,22.50
2017-08-17T08:25:19.970Z,22.40
2017-08-17T08:27:48.225Z,22.40
2017-08-17T08:30:16.648Z,22.50
2017-08-17T08:32:45.711Z,22.80
2017-08-17T08:35:13.981Z,22.70
2017-08-17T08:37:42.247Z,22.80
2017-08-17T08:40:10.533Z,22.90
2017-08-17T08:42:38.804Z,23.10
2017-08-17T08:45:07.077Z,23.10
2017-08-17T08:47:35.456Z,23.00
2017-08-17T08:50:03.730Z,23.10
2017-08-17T08:52:32.123Z,23.10
2017-08-17T08:55:00.379Z,23.10
2017-08-17T08:57:28.764Z,23.20
2017-08-17T08:59:57.054Z,23.20
2017-08-17T09:02:25.443Z,23.30
2017-08-17T09:04:53.718Z,23.20
2017-08-17T09:07:21.986Z,23.30
2017-08-17T09:09:50.363Z,23.50
2017-08-17T09:12:18.646Z,23.60
2017-08-17T09:14:47.022Z,23.80
2017-08-17T09:17:15.292Z,24.00
2017-08-17T09:19:43.578Z,24.10
2017-08-17T09:22:11.969Z,24.00
2017-08-17T09:24:40.335Z,24.10
2017-08-17T09:27:08.709Z,24.00
2017-08-17T09:29:37.127Z,24.10
2017-08-17T09:32:06.286Z,24.20
2017-08-17T09:34:34.656Z,24.20
2017-08-17T09:37:03.050Z,24.40
2017-08-17T09:39:31.361Z,24.40
2017-08-17T09:42:00.382Z,24.50
2017-08-17T09:44:28.707Z,24.50
2017-08-17T09:46:56.997Z,24.70
2017-08-17T09:49:25.257Z,24.70
2017-08-17T09:51:53.615Z,24.60
2017-08-17T09:54:21.946Z,24.60
2017-08-17T09:56:51.102Z,24.60
2017-08-17T09:59:19.672Z,24.70
2017-08-17T10:01:47.950Z,24.70
2017-08-17T10:04:17.018Z,24.80
2017-08-17T10:06:45.392Z,24.80
2017-08-17T10:09:13.657Z,24.90
2017-08-17T10:11:42.075Z,24.90
2017-08-17T10:14:10.332Z,25.10
2017-08-17T10:16:38.613Z,25.20
2017-08-17T10:19:06.893Z,25.30
2017-08-17T10:21:35.169Z,25.20
2017-08-17T10:24:03.453Z,25.20
2017-08-17T10:26:31.727Z,25.20
2017-08-17T10:29:00.198Z,25.30
2017-08-17T10:31:28.490Z,25.40
2017-08-17T10:33:56.871Z,25.60
2017-08-17T10:36:25.145Z,25.80
2017-08-17T10:38:53.443Z,25.80
2017-08-17T10:41:22.899Z,26.10
2017-08-17T10:43:51.452Z,26.00
2017-08-17T10:46:20.041Z,26.10
2017-08-17T10:48:48.485Z,26.20
2017-08-17T10:51:19.592Z,26.50
2017-08-17T10:53:48.590Z,26.50
2017-08-17T10:56:17.569Z,26.50
2017-08-17T10:58:46.684Z,26.50
2017-08-17T11:01:15.082Z,26.50
2017-08-17T11:03:43.464Z,26.60
2017-08-17T11:06:11.928Z,26.70
2017-08-17T11:08:40.196Z,26.90
2017-08-17T11:11:08.592Z,27.10
2017-08-17T11:13:36.958Z,27.30
2017-08-17T11:16:05.356Z,27.40
2017-08-17T11:18:33.716Z,27.40
2017-08-17T11:21:02.111Z,27.50
2017-08-17T11:23:30.385Z,27.60
2017-08-17T11:25:58.694Z,27.40
2017-08-17T11:28:27.760Z,27.60
2017-08-17T11:30:56.040Z,27.60
2017-08-17T11:33:24.303Z,27.90
2017-08-17T11:35:52.587Z,27.90
2017-08-17T11:38:20.873Z,28.00
2017-08-17T11:40:49.159Z,27.90
2017-08-17T11:43:17.539Z,28.00
2017-08-17T11:45:45.802Z,28.10
2017-08-17T11:48:14.068Z,28.10
2017-08-17T11:50:42.367Z,28.20
2017-08-17T11:53:10.625Z,28.40
2017-08-17T11:55:38.905Z,28.50
2017-08-17T11:58:07.172Z,28.60
2017-08-17T12:00:35.452Z,28.80
2017-08-17T12:03:03.713Z,29.00
2017-08-17T12:05:32.026Z,29.30
2017-08-17T12:08:00.387Z,29.40
2017-08-17T12:10:28.778Z,29.80
2017-08-17T12:12:57.042Z,29.70
2017-08-17T12:15:25.337Z,29.70
2017-08-17T12:17:53.626Z,29.60
2017-08-17T12:20:21.920Z,29.70
2017-08-17T12:22:50.275Z,29.40
2017-08-17T12:25:18.542Z,29.50
2017-08-17T12:27:46.841Z,29.50
2017-08-17T12:30:15.877Z,30.00
2017-08-17T12:32:44.389Z,30.00
2017-08-17T12:35:12.644Z,30.10
2017-08-17T12:37:40.942Z,30.40
2017-08-17T12:40:09.349Z,30.30
2017-08-17T12:42:37.705Z,30.20
2017-08-17T12:45:06.091Z,30.00
2017-08-17T12:47:34.355Z,30.00
2017-08-17T12:50:02.840Z,29.70
2017-08-17T12:52:31.138Z,29.70
2017-08-17T12:54:59.405Z,29.70
2017-08-17T12:57:27.687Z,30.00
2017-08-17T12:59:57.583Z,30.70
2017-08-17T13:02:25.861Z,30.70
2017-08-17T13:04:54.254Z,30.90
2017-08-17T13:07:22.529Z,30.60
2017-08-17T13:09:50.803Z,30.10
2017-08-17T13:12:19.173Z,29.80
2017-08-17T13:14:47.429Z,29.60
2017-08-17T13:17:15.728Z,29.60
2017-08-17T13:19:44.107Z,29.30
2017-08-17T13:22:12.590Z,29.10
2017-08-17T13:24:40.866Z,29.00
2017-08-17T13:27:09.257Z,28.80
2017-08-17T13:29:37.530Z,28.70
2017-08-17T13:32:05.813Z,28.70
2017-08-17T13:34:34.084Z,28.60
2017-08-17T13:37:02.357Z,28.50
2017-08-17T13:39:30.745Z,28.70
2017-08-17T13:41:59.007Z,28.80
2017-08-17T13:44:27.306Z,29.00
2017-08-17T13:46:55.583Z,28.80
2017-08-17T13:49:23.884Z,29.00
2017-08-17T13:51:52.160Z,29.00
2017-08-17T13:54:20.421Z,28.80
2017-08-17T13:56:49.493Z,28.90
2017-08-17T13:59:17.751Z,28.90
2017-08-17T14:01:46.055Z,28.90
2017-08-17T14:04:14.434Z,28.90
2017-08-17T14:06:42.799Z,29.00
2017-08-17T14:09:11.073Z,29.30
2017-08-17T14:11:39.465Z,29.40
2017-08-17T14:14:07.746Z,29.60
2017-08-17T14:16:36.118Z,29.60
2017-08-17T14:19:04.391Z,29.40
2017-08-17T14:21:32.772Z,29.20
2017-08-17T14:24:01.072Z,29.30
2017-08-17T14:26:30.261Z,29.40
2017-08-17T14:28:58.591Z,29.40
2017-08-17T14:31:26.839Z,29.60
2017-08-17T14:33:55.999Z,30.00
2017-08-17T14:36:24.286Z,30.10
2017-08-17T14:38:52.585Z,30.40
2017-08-17T14:41:21.649Z,30.40
2017-08-17T14:43:50.078Z,30.40
2017-08-17T14:46:18.363Z,30.40
2017-08-17T14:48:46.644Z,30.40
2017-08-17T14:51:14.934Z,30.50
2017-08-17T14:53:43.212Z,31.10
2017-08-17T14:56:11.472Z,31.70
2017-08-17T14:58:39.805Z,31.90
2017-08-17T15:01:08.180Z,31.90
2017-08-17T15:03:36.553Z,31.70
2017-08-17T15:06:04.941Z,31.60
2017-08-17T15:08:33.214Z,31.60
2017-08-17T15:11:01.497Z,31.20
2017-08-17T15:13:29.864Z,30.90
2017-08-17T15:15:58.149Z,30.30
2017-08-17T15:18:26.539Z,29.80
2017-08-17T15:20:54.893Z,29.80
2017-08-17T15:23:23.185Z,29.30
2017-08-17T15:25:51.558Z,29.30
2017-08-17T15:28:19.825Z,29.10
2017-08-17T15:30:48.106Z,29.00
2017-08-17T15:33:16.501Z,28.70
2017-08-17T15:35:44.764Z,28.80
2017-08-17T15:38:13.162Z,28.80
2017-08-17T15:40:41.523Z,28.70
2017-08-17T15:43:09.891Z,28.50
2017-08-17T15:45:38.194Z,28.30
2017-08-17T15:48:06.469Z,28.10
2017-08-17T15:50:34.746Z,28.00
2017-08-17T15:53:03.122Z,27.90
2017-08-17T15:55:31.380Z,27.80
2017-08-17T15:57:59.778Z,27.70
2017-08-17T16:00:28.051Z,27.60
2017-08-17T16:02:56.342Z,27.60
2017-08-17T16:05:24.738Z,27.60
2017-08-17T16:07:53.034Z,27.50
2017-08-17T16:10:21.337Z,27.50
2017-08-17T16:12:50.392Z,27.50
2017-08-17T16:15:18.672Z,27.50
2017-08-17T16:17:46.970Z,27.50
2017-08-17T16:20:15.367Z,27.40
2017-08-17T16:22:43.715Z,27.30
2017-08-17T16:25:12.014Z,27.30
2017-08-17T16:27:40.291Z,27.40
2017-08-17T16:30:08.562Z,27.30
2017-08-17T16:32:36.927Z,27.20
2017-08-17T16:35:05.197Z,27.20
2017-08-17T16:37:33.692Z,27.20
2017-08-17T16:40:01.943Z,27.20
2017-08-17T16:42:30.239Z,27.30
2017-08-17T16:44:58.569Z,27.10
2017-08-17T16:47:26.923Z,27.10
2017-08-17T16:49:55.996Z,27.10
2017-08-17T16:52:24.263Z,27.00
2017-08-17T16:54:52.545Z,27.00
2017-08-17T16:57:20.823Z,26.90
2017-08-17T16:59:49.217Z,26.90
2017-08-17T17:02:17.580Z,26.80
2017-08-17T17:04:45.964Z,26.70
2017-08-17T17:07:14.261Z,26.50
2017-08-17T17:09:42.563Z,26.40
2017-08-17T17:12:10.969Z,26.40
2017-08-17T17:14:39.280Z,26.40
2017-08-17T17:17:07.669Z,26.40
2017-08-17T17:19:35.941Z,26.30
2017-08-17T17:22:04.224Z,26.30
2017-08-17T17:24:32.495Z,26.30
2017-08-17T17:27:00.776Z,26.30
2017-08-17T17:29:29.166Z,26.40
2017-08-17T17:31:58.634Z,26.10
2017-08-17T17:34:26.938Z,26.10
2017-08-17T17:36:55.204Z,26.10
2017-08-17T17:39:23.502Z,26.00
2017-08-17T17:41:52.625Z,25.80
2017-08-17T17:44:20.912Z,25.70
2017-08-17T17:46:49.179Z,25.70
2017-08-17T17:49:17.506Z,25.60
2017-08-17T17:51:45.891Z,25.50
2017-08-17T17:54:14.284Z,25.40
2017-08-17T17:56:42.576Z,25.40
2017-08-17T17:59:11.703Z,25.20
2017-08-17T18:01:40.016Z,25.20
2017-08-17T18:04:08.495Z,25.20
2017-08-17T18:06:36.740Z,25.10
2017-08-17T18:09:05.044Z,25.10
2017-08-17T18:11:33.343Z,25.00
2017-08-17T18:14:01.616Z,24.90
2017-08-17T18:16:29.985Z,24.90
2017-08-17T18:18:58.281Z,24.80
2017-08-17T18:21:26.546Z,24.80
2017-08-17T18:23:54.812Z,24.80
2017-08-17T18:26:23.193Z,24.80
2017-08-17T18:28:51.480Z,24.70
2017-08-17T18:31:19.793Z,24.70
2017-08-17T18:33:48.653Z,24.70
2017-08-17T18:36:16.988Z,24.70
2017-08-17T18:38:46.080Z,24.70
2017-08-17T18:41:14.328Z,24.60
2017-08-17T18:43:42.718Z,24.60
2017-08-17T18:46:10.984Z,24.60
2017-08-17T18:48:39.380Z,24.60
2017-08-17T18:51:07.668Z,24.50
2017-08-17T18:53:36.020Z,24.40
2017-08-17T18:56:05.053Z,24.10
2017-08-17T18:58:33.378Z,24.10
2017-08-17T19:01:02.065Z,23.90
2017-08-17T19:03:30.818Z,23.30
2017-08-17T19:05:59.216Z,22.90
2017-08-17T19:08:27.500Z,22.60
2017-08-17T19:10:55.867Z,22.40
2017-08-17T19:13:24.154Z,22.30
2017-08-17T19:15:52.433Z,22.30
2017-08-17T19:18:20.707Z,22.20
2017-08-17T19:20:49.234Z,22.20
2017-08-17T19:23:17.530Z,22.20
2017-08-17T19:25:46.248Z,22.20
2017-08-17T19:28:14.776Z,22.20
2017-08-17T19:30:43.097Z,22.20
2017-08-17T19:33:11.369Z,22.20
2017-08-17T19:35:39.793Z,22.10
2017-08-17T19:38:08.807Z,22.20
2017-08-17T19:40:37.192Z,22.20
2017-08-17T19:43:06.270Z,22.20
2017-08-17T19:45:34.536Z,22.10
2017-08-17T19:48:02.929Z,22.20
2017-08-17T19:50:31.188Z,22.10
2017-08-17T19:52:59.604Z,22.10
2017-08-17T19:55:27.973Z,22.10
2017-08-17T19:57:56.374Z,22.00
2017-08-17T20:00:25.422Z,22.00
2017-08-17T20:02:53.745Z,22.00
2017-08-17T20:05:22.793Z,22.00
2017-08-17T20:07:51.109Z,22.00
2017-08-17T20:10:20.168Z,22.00
2017-08-17T20:12:48.443Z,22.00
2017-08-17T20:15:16.741Z,22.00
2017-08-17T20:17:45.691Z,22.10
2017-08-17T20:20:14.016Z,22.20
2017-08-17T20:22:42.994Z,22.20
2017-08-17T20:25:11.365Z,22.10
2017-08-17T20:27:40.548Z,22.10
2017-08-17T20:30:09.632Z,22.10
2017-08-17T20:32:38.168Z,22.00
2017-08-17T20:35:06.586Z,22.00
2017-08-17T20:37:36.047Z,22.10
2017-08-17T20:40:04.334Z,22.10
2017-08-17T20:42:32.716Z,22.20
2017-08-17T20:45:01.014Z,22.20
2017-08-17T20:47:30.101Z,22.10
2017-08-17T20:49:59.140Z,22.20
2017-08-17T20:52:27.437Z,22.10
2017-08-17T20:54:55.750Z,22.20
2017-08-17T20:57:24.821Z,21.80
2017-08-17T20:59:53.813Z,21.80
2017-08-17T21:02:22.228Z,21.80
2017-08-17T21:04:50.572Z,21.90
2017-08-17T21:07:18.957Z,21.90
2017-08-17T21:09:47.238Z,21.90
2017-08-17T21:12:15.509Z,21.90
2017-08-17T21:14:43.818Z,22.00
2017-08-17T21:17:12.873Z,22.00
2017-08-17T21:19:41.183Z,22.00
2017-08-17T21:22:10.256Z,22.10
2017-08-17T21:24:39.363Z,22.10
2017-08-17T21:27:07.762Z,22.10
2017-08-17T21:29:36.311Z,22.10
2017-08-17T21:32:04.704Z,22.10
2017-08-17T21:34:33.789Z,22.10
2017-08-17T21:37:02.044Z,22.10
2017-08-17T21:39:30.360Z,22.20
2017-08-17T21:41:58.673Z,22.30
2017-08-17T21:44:27.010Z,22.30
2017-08-17T21:46:55.383Z,22.30
2017-08-17T21:49:23.632Z,22.20
2017-08-17T21:51:51.925Z,22.30
2017-08-17T21:54:20.211Z,22.30
2017-08-17T21:56:48.516Z,22.30
2017-08-17T21:59:17.542Z,22.30
2017-08-17T22:01:45.843Z,22.30
2017-08-17T22:04:14.105Z,22.30
2017-08-17T22:06:42.375Z,22.30
2017-08-17T22:09:10.685Z,22.30
2017-08-17T22:11:38.940Z,22.30
2017-08-17T22:14:07.216Z,22.30
2017-08-17T22:16:35.518Z,22.30
2017-08-17T22:19:03.810Z,22.40
2017-08-17T22:21:32.096Z,22.40
2017-08-17T22:24:01.152Z,22.40
2017-08-17T22:26:29.431Z,22.30
2017-08-17T22:28:57.807Z,22.40
2017-08-17T22:31:26.077Z,22.30
2017-08-17T22:33:54.467Z,22.30
2017-08-17T22:36:22.757Z,22.20
2017-08-17T22:38:51.121Z,22.20
2017-08-17T22:41:19.378Z,22.10
2017-08-17T22:43:47.687Z,22.10
2017-08-17T22:46:15.937Z,22.00
2017-08-17T22:48:44.321Z,22.00
2017-08-17T22:51:12.724Z,22.00
2017-08-17T22:53:40.967Z,21.90
2017-08-17T22:56:09.250Z,21.90
2017-08-17T22:58:37.521Z,21.80
2017-08-17T23:01:05.797Z,21.80
2017-08-17T23:03:34.097Z,21.70
2017-08-17T23:06:02.375Z,21.60
2017-08-17T23:08:30.633Z,21.60
2017-08-17T23:10:58.908Z,21.50
2017-08-17T23:13:27.172Z,21.50
2017-08-17T23:15:55.481Z,21.40
2017-08-17T23:18:23.762Z,21.40
2017-08-17T23:20:52.050Z,21.40
2017-08-17T23:23:20.321Z,21.30
2017-08-17T23:25:48.699Z,21.30
2017-08-17T23:28:17.076Z,21.20
2017-08-17T23:30:45.352Z,21.20
2017-08-17T23:33:13.732Z,21.10
2017-08-17T23:35:42.002Z,21.10
2017-08-17T23:38:10.272Z,21.00
2017-08-17T23:40:38.557Z,21.00
2017-08-17T23:43:06.844Z,21.00
2017-08-17T23:45:35.116Z,21.00
2017-08-17T23:48:03.400Z,21.00
2017-08-17T23:50:31.677Z,20.90
2017-08-17T23:53:00.036Z,20.90
2017-08-17T23:55:28.309Z,20.80
2017-08-17T23:57:56.597Z,20.80
